Time;durP1;ratioP1;P1;durP2;ratioP2;P2;SDS_P1;SDS_P2;PMS_P1;PMS_P2;Temp;Humidity;BMP_temperature;BMP_pressure;BME280_temperature;BME280_humidity;BME280_pressure;Samples;Min_cycle;Max_cycle;Signal;HPM_P1;HPM_P2
2021/01/21 00:01:19;;;;;;;32.63;15.52;;;-2.90;59.70;;;;;;5073329;28;20416;-60
2021/01/21 00:03:46;;;;;;;35.42;16.25;;;-2.90;59.70;;;;;;5062950;28;20112;-60
2021/01/21 00:06:12;;;;;;;29.52;16.30;;;-2.90;59.60;;;;;;5074187;28;20056;-60
2021/01/21 00:08:37;;;;;;;37.65;18.98;;;-2.90;59.60;;;;;;5073809;28;20025;-60
2021/01/21 00:11:03;;;;;;;37.08;19.42;;;-2.90;59.80;;;;;;5072824;28;20035;-61
2021/01/21 00:13:29;;;;;;;40.78;19.98;;;-2.90;59.90;;;;;;5074005;28;20416;-61
2021/01/21 00:15:54;;;;;;;30.15;16.13;;;-2.90;60.00;;;;;;5073949;28;20036;-61
2021/01/21 00:18:20;;;;;;;29.75;17.27;;;-2.90;60.00;;;;;;5066789;28;20372;-60
2021/01/21 00:20:46;;;;;;;26.88;14.68;;;-2.80;60.00;;;;;;5071846;28;20468;-60
2021/01/21 00:23:12;;;;;;;34.50;18.23;;;-2.80;60.00;;;;;;5063577;28;20031;-60
2021/01/21 00:25:37;;;;;;;34.35;19.98;;;-2.80;60.70;;;;;;5073737;28;20035;-60
2021/01/21 00:28:03;;;;;;;32.42;18.38;;;-2.80;60.30;;;;;;5072545;28;20024;-61
2021/01/21 00:30:29;;;;;;;38.55;19.25;;;-2.80;60.00;;;;;;5073730;28;20031;-61
2021/01/21 00:32:55;;;;;;;40.95;18.92;;;-2.80;60.20;;;;;;5073626;28;20021;-60
2021/01/21 00:35:21;;;;;;;32.35;16.30;;;-2.80;60.30;;;;;;5073609;28;20077;-60
2021/01/21 00:37:47;;;;;;;34.85;18.40;;;-2.70;60.40;;;;;;5073762;28;20056;-60
2021/01/21 00:40:13;;;;;;;37.78;20.27;;;-2.70;60.40;;;;;;5073902;28;20031;-61
2021/01/21 00:42:38;;;;;;;36.10;19.55;;;-2.60;60.40;;;;;;5068458;28;20591;-61
2021/01/21 00:45:05;;;;;;;32.63;17.73;;;-2.50;60.60;;;;;;5063728;28;20461;-61
2021/01/21 00:47:31;;;;;;;38.30;19.98;;;-2.50;60.50;;;;;;5071975;28;20032;-60
2021/01/21 00:49:57;;;;;;;41.33;20.60;;;-2.40;60.60;;;;;;5072452;28;20091;-61
2021/01/21 00:52:22;;;;;;;35.97;18.33;;;-2.40;60.60;;;;;;5073043;28;20043;-60
2021/01/21 00:54:48;;;;;;;38.72;18.85;;;-2.40;60.50;;;;;;5073099;28;20530;-61
2021/01/21 00:57:14;;;;;;;35.90;18.05;;;-2.30;60.60;;;;;;5073414;28;20100;-60
2021/01/21 00:59:40;;;;;;;29.95;15.88;;;-2.30;60.70;;;;;;5073388;28;20020;-60
2021/01/21 01:02:05;;;;;;;28.70;14.90;;;-2.30;60.60;;;;;;5073510;28;20025;-61
2021/01/21 01:04:31;;;;;;;30.08;15.10;;;-2.30;60.40;;;;;;5072466;28;20499;-61
2021/01/21 01:06:57;;;;;;;27.20;15.95;;;-2.30;60.30;;;;;;5073328;28;20048;-60
2021/01/21 01:09:23;;;;;;;30.17;18.45;;;-2.40;60.20;;;;;;5073362;28;20450;-61
2021/01/21 01:11:48;;;;;;;27.70;15.50;;;-2.40;60.30;;;;;;5073463;28;20375;-59
2021/01/21 01:14:14;;;;;;;29.35;14.93;;;-2.50;60.40;;;;;;5073051;28;20032;-60
2021/01/21 01:16:40;;;;;;;29.23;14.57;;;-2.50;60.30;;;;;;5072302;28;20029;-61
2021/01/21 01:19:06;;;;;;;26.38;14.48;;;-2.50;60.50;;;;;;5072995;28;20561;-60
2021/01/21 01:21:31;;;;;;;26.45;14.80;;;-2.60;60.50;;;;;;5073043;28;20074;-60
2021/01/21 01:23:57;;;;;;;22.83;14.57;;;-2.60;60.40;;;;;;5072991;28;20150;-60
2021/01/21 01:26:23;;;;;;;26.40;15.25;;;-2.70;60.50;;;;;;5073044;28;20473;-60
2021/01/21 01:28:48;;;;;;;28.10;15.55;;;-2.70;60.70;;;;;;5073362;28;20016;-60
2021/01/21 01:31:15;;;;;;;33.17;16.80;;;-2.60;60.90;;;;;;5077320;28;20024;-60
2021/01/21 01:33:41;;;;;;;28.52;17.27;;;-2.60;60.90;;;;;;5077051;28;20021;-61
2021/01/21 01:36:07;;;;;;;28.65;16.95;;;-2.50;60.90;;;;;;5076441;28;20095;-60
2021/01/21 01:38:33;;;;;;;24.15;14.30;;;-2.50;60.80;;;;;;5076882;28;20028;-61
2021/01/21 01:40:59;;;;;;;23.92;13.68;;;-2.40;60.80;;;;;;5077131;28;20024;-60
2021/01/21 01:43:25;;;;;;;26.20;14.18;;;-2.30;60.70;;;;;;5076840;28;20024;-61
2021/01/21 01:45:51;;;;;;;28.95;15.02;;;-2.30;60.50;;;;;;5063116;28;20020;-61
2021/01/21 01:48:20;;;;;;;32.15;17.02;;;-2.20;60.40;;;;;;5077013;28;20104;-61
2021/01/21 01:50:46;;;;;;;33.45;18.40;;;-2.20;60.40;;;;;;5075357;28;20033;-61
2021/01/21 01:53:12;;;;;;;32.88;19.63;;;-2.20;60.30;;;;;;5076909;28;20420;-61
2021/01/21 01:55:41;;;;;;;29.17;14.30;;;-2.20;60.10;;;;;;5076707;28;20060;-61
2021/01/21 01:58:13;;;;;;;35.47;19.05;;;-2.10;60.20;;;;;;5076577;28;20474;-60
2021/01/21 02:00:39;;;;;;;32.20;18.52;;;-2.10;60.20;;;;;;5076567;28;20032;-60
2021/01/21 02:03:05;;;;;;;32.95;16.70;;;-2.10;60.40;;;;;;5075699;28;20388;-60
2021/01/21 02:05:30;;;;;;;37.30;18.67;;;-2.10;60.20;;;;;;5073263;28;20036;-60
2021/01/21 02:07:57;;;;;;;38.22;18.33;;;-2.10;60.10;;;;;;5076448;28;20417;-60
2021/01/21 02:10:23;;;;;;;32.60;17.85;;;-2.10;60.10;;;;;;5075570;28;20036;-59
2021/01/21 02:13:10;;;;;;;36.28;20.05;;;-2.00;60.20;;;;;;5076218;28;20037;-60
2021/01/21 02:15:41;;;;;;;34.75;19.23;;;-2.00;60.30;;;;;;5076521;28;20073;-60
2021/01/21 02:18:44;;;;;;;44.63;22.35;;;-2.00;60.30;;;;;;5076235;28;20021;-60
2021/01/21 02:21:29;;;;;;;40.97;21.85;;;-1.90;60.20;;;;;;5070199;28;20032;-60
2021/01/21 02:24:21;;;;;;;28.52;17.00;;;-1.90;60.20;;;;;;5067674;28;20091;-61
2021/01/21 02:26:58;;;;;;;39.05;19.75;;;-1.90;60.00;;;;;;5076227;28;20070;-61
2021/01/21 02:29:26;;;;;;;45.60;21.63;;;-1.90;59.90;;;;;;5090772;28;20487;-61
2021/01/21 02:32:00;;;;;;;43.00;21.92;;;-1.90;60.00;;;;;;5075965;28;20070;-60
2021/01/21 02:34:44;;;;;;;34.78;17.77;;;-1.90;60.00;;;;;;5076231;28;20683;-61
2021/01/21 02:37:18;;;;;;;36.92;20.08;;;-1.90;60.00;;;;;;5075784;28;20025;-60
2021/01/21 02:39:47;;;;;;;35.58;19.52;;;-1.90;60.00;;;;;;5076031;28;20086;-60
2021/01/21 02:42:14;;;;;;;30.60;17.88;;;-1.80;60.10;;;;;;5074748;28;20017;-61
2021/01/21 02:44:40;;;;;;;31.80;16.75;;;-1.90;60.10;;;;;;5075781;28;20020;-60
2021/01/21 02:47:06;;;;;;;31.90;18.75;;;-1.80;60.10;;;;;;5074199;28;20025;-60
2021/01/21 02:49:33;;;;;;;32.45;17.63;;;-1.80;60.00;;;;;;5075872;28;20028;-60
2021/01/21 02:52:01;;;;;;;29.08;15.25;;;-1.80;60.10;;;;;;5075576;28;20035;-60
2021/01/21 02:54:53;;;;;;;34.65;18.73;;;-1.70;60.00;;;;;;5074555;28;20024;-61
2021/01/21 02:57:21;;;;;;;33.50;18.50;;;-1.70;60.00;;;;;;5072770;28;20033;-60
2021/01/21 02:59:48;;;;;;;27.92;13.77;;;-1.70;60.10;;;;;;5075658;28;20021;-61
2021/01/21 03:02:17;;;;;;;32.55;18.70;;;-1.70;60.00;;;;;;5075411;28;20025;-61
2021/01/21 03:04:45;;;;;;;29.25;17.08;;;-1.70;60.00;;;;;;5074810;28;20047;-61
2021/01/21 03:07:14;;;;;;;30.55;16.85;;;-1.60;60.10;;;;;;5075214;28;20084;-61
2021/01/21 03:09:44;;;;;;;27.92;15.95;;;-1.60;60.00;;;;;;5075400;28;20024;-61
2021/01/21 03:12:19;;;;;;;31.33;16.17;;;-1.60;60.00;;;;;;5075489;28;20036;-60
2021/01/21 03:14:45;;;;;;;24.98;14.25;;;-1.60;59.80;;;;;;5075373;28;20028;-61
2021/01/21 03:17:11;;;;;;;32.58;15.93;;;-1.50;60.30;;;;;;5075235;28;20021;-60
2021/01/21 03:19:37;;;;;;;30.75;16.65;;;-1.50;59.70;;;;;;5075118;28;20326;-60
2021/01/21 03:22:03;;;;;;;29.63;17.00;;;-1.50;59.60;;;;;;5075075;28;20473;-61
2021/01/21 03:24:28;;;;;;;30.23;16.55;;;-1.50;59.60;;;;;;5075033;28;20029;-60
2021/01/21 03:26:55;;;;;;;31.80;17.83;;;-1.50;59.60;;;;;;5074882;28;20476;-60
2021/01/21 03:29:20;;;;;;;39.80;19.63;;;-1.50;59.60;;;;;;5075208;28;20476;-59
2021/01/21 03:31:46;;;;;;;34.42;19.33;;;-1.50;59.60;;;;;;5074998;28;20059;-60
2021/01/21 03:34:12;;;;;;;36.35;21.52;;;-1.50;59.80;;;;;;5074962;28;20082;-60
2021/01/21 03:36:38;;;;;;;40.88;21.58;;;-1.50;60.00;;;;;;5074717;28;20464;-60
2021/01/21 03:39:04;;;;;;;38.22;21.80;;;-1.40;59.90;;;;;;5073772;28;20020;-61
2021/01/21 03:41:29;;;;;;;45.30;23.73;;;-1.40;59.80;;;;;;5074570;28;20028;-61
2021/01/21 03:43:55;;;;;;;36.15;19.63;;;-1.40;59.80;;;;;;5074686;28;20021;-61
2021/01/21 03:46:20;;;;;;;35.85;20.80;;;-1.40;59.90;;;;;;5073337;28;20020;-60
2021/01/21 03:48:46;;;;;;;48.83;26.35;;;-1.50;60.00;;;;;;5074062;28;20028;-60
2021/01/21 03:51:12;;;;;;;44.70;24.45;;;-1.40;60.10;;;;;;5074233;28;20028;-60
2021/01/21 03:53:38;;;;;;;45.53;23.30;;;-1.40;60.20;;;;;;5073987;28;20535;-60
2021/01/21 03:56:04;;;;;;;44.25;22.92;;;-1.40;60.30;;;;;;5074052;28;20032;-60
2021/01/21 03:58:30;;;;;;;41.78;22.15;;;-1.40;60.30;;;;;;5074060;28;20032;-60
2021/01/21 04:00:56;;;;;;;44.95;22.02;;;-1.40;60.40;;;;;;5073930;28;20013;-60
2021/01/21 04:03:21;;;;;;;35.28;20.30;;;-1.40;60.40;;;;;;5073889;28;20025;-60
2021/01/21 04:05:47;;;;;;;36.60;21.52;;;-1.40;60.70;;;;;;5072129;28;20041;-60
2021/01/21 04:08:13;;;;;;;40.17;21.67;;;-1.30;60.60;;;;;;5073962;28;20029;-60
2021/01/21 04:10:38;;;;;;;31.70;16.95;;;-1.30;60.70;;;;;;5073567;28;20041;-60
2021/01/21 04:13:04;;;;;;;34.67;18.88;;;-1.20;60.90;;;;;;5073733;28;20039;-60
2021/01/21 04:15:30;;;;;;;37.42;20.63;;;-1.20;60.80;;;;;;5073617;28;20048;-60
2021/01/21 04:17:55;;;;;;;38.83;20.60;;;-1.20;60.90;;;;;;5073651;28;20031;-61
2021/01/21 04:20:21;;;;;;;45.97;24.10;;;-1.10;61.10;;;;;;5073790;28;20417;-60
2021/01/21 04:22:47;;;;;;;49.30;26.00;;;-1.10;61.10;;;;;;5071514;28;20017;-61
2021/01/21 04:25:12;;;;;;;43.92;24.10;;;-1.00;61.50;;;;;;5071476;28;20093;-61
2021/01/21 04:27:38;;;;;;;48.00;25.30;;;-1.00;61.40;;;;;;5073355;28;20035;-60
2021/01/21 04:30:05;;;;;;;53.50;27.63;;;-1.00;61.40;;;;;;5073457;28;20017;-60
2021/01/21 04:32:31;;;;;;;45.90;26.50;;;-1.00;61.50;;;;;;5073260;28;20039;-60
2021/01/21 04:34:56;;;;;;;59.70;31.75;;;-0.90;61.50;;;;;;5073252;28;20028;-60
2021/01/21 04:37:22;;;;;;;62.45;30.77;;;-0.90;61.50;;;;;;5073280;28;20099;-60
2021/01/21 04:39:48;;;;;;;80.32;39.47;;;-0.90;61.50;;;;;;5073079;28;20013;-60
2021/01/21 04:42:13;;;;;;;82.50;40.35;;;-0.90;61.60;;;;;;5073081;28;20020;-60
2021/01/21 04:44:39;;;;;;;86.13;44.38;;;-1.00;61.60;;;;;;5073416;28;20024;-60
2021/01/21 04:47:08;;;;;;;63.58;33.72;;;-1.00;61.60;;;;;;5073575;28;20016;-61
2021/01/21 04:49:37;;;;;;;69.47;34.15;;;-1.00;61.90;;;;;;5072173;28;20123;-61
2021/01/21 04:52:04;;;;;;;49.17;26.70;;;-1.00;62.00;;;;;;5073306;28;20040;-61
2021/01/21 04:54:43;;;;;;;56.10;28.02;;;-1.00;61.90;;;;;;5073498;28;20124;-61
2021/01/21 04:57:12;;;;;;;54.15;26.70;;;-1.10;62.00;;;;;;5073333;28;20120;-60
2021/01/21 04:59:38;;;;;;;47.67;25.38;;;-1.00;62.10;;;;;;5073775;28;20392;-61
2021/01/21 05:02:07;;;;;;;52.42;27.25;;;-1.10;62.30;;;;;;5073337;28;20376;-61
2021/01/21 05:04:33;;;;;;;39.65;23.48;;;-1.00;62.40;;;;;;5063202;28;20066;-61
2021/01/21 05:07:00;;;;;;;54.35;27.50;;;-1.00;62.40;;;;;;5073192;28;20091;-60
2021/01/21 05:09:26;;;;;;;57.85;29.13;;;-1.10;62.50;;;;;;5073249;28;20047;-61
2021/01/21 05:11:53;;;;;;;52.97;27.58;;;-1.10;62.50;;;;;;5073114;28;20059;-60
2021/01/21 05:14:19;;;;;;;62.40;31.17;;;-1.10;62.80;;;;;;5073196;28;20036;-60
2021/01/21 05:16:45;;;;;;;55.17;29.52;;;-1.10;62.80;;;;;;5073168;28;20153;-60
2021/01/21 05:19:18;;;;;;;55.22;30.60;;;-1.10;62.90;;;;;;5072867;28;20523;-60
2021/01/21 05:21:44;;;;;;;61.50;34.10;;;-1.10;62.90;;;;;;5073099;28;20021;-60
2021/01/21 05:24:11;;;;;;;58.30;28.88;;;-1.20;63.30;;;;;;5073205;28;20027;-60
2021/01/21 05:26:43;;;;;;;78.82;38.25;;;-1.20;63.40;;;;;;5073048;28;20356;-60
2021/01/21 05:29:13;;;;;;;86.05;41.58;;;-1.20;63.50;;;;;;5073330;28;20506;-60
2021/01/21 05:31:39;;;;;;;81.90;37.83;;;-1.20;63.80;;;;;;5058876;28;20029;-61
2021/01/21 05:34:07;;;;;;;67.32;34.70;;;-1.20;63.80;;;;;;5073339;28;20400;-61
2021/01/21 05:36:43;;;;;;;67.75;34.00;;;-1.30;64.10;;;;;;5073166;28;20070;-61
2021/01/21 05:39:08;;;;;;;62.38;33.75;;;-1.20;64.30;;;;;;5073101;28;20056;-61
2021/01/21 05:41:36;;;;;;;79.07;38.15;;;-1.30;64.30;;;;;;5073052;28;20090;-61
2021/01/21 05:44:03;;;;;;;67.97;34.85;;;-1.30;64.40;;;;;;5072835;28;20074;-61
2021/01/21 05:46:31;;;;;;;84.18;42.90;;;-1.30;64.50;;;;;;5073075;28;20025;-61
2021/01/21 05:48:57;;;;;;;88.30;41.58;;;-1.30;64.80;;;;;;5072814;28;20020;-60
2021/01/21 05:51:28;;;;;;;83.47;41.80;;;-1.20;64.90;;;;;;5072982;28;20027;-60
2021/01/21 05:53:54;;;;;;;92.05;42.13;;;-1.20;65.00;;;;;;5072987;28;20060;-61
2021/01/21 05:56:22;;;;;;;78.35;39.78;;;-1.20;65.20;;;;;;5072974;28;20570;-60
2021/01/21 05:58:53;;;;;;;59.20;32.33;;;-1.20;65.20;;;;;;5072944;28;20403;-61
2021/01/21 06:01:24;;;;;;;78.22;39.22;;;-1.20;65.20;;;;;;5073003;28;20110;-60
2021/01/21 06:03:50;;;;;;;79.35;38.67;;;-1.20;65.50;;;;;;5072954;28;20019;-60
2021/01/21 06:06:15;;;;;;;70.32;37.38;;;-1.20;65.50;;;;;;5067517;28;20049;-60
2021/01/21 06:08:42;;;;;;;80.35;37.67;;;-1.10;65.70;;;;;;5072876;28;20382;-60
2021/01/21 06:11:09;;;;;;;80.65;37.95;;;-1.10;65.90;;;;;;5072686;28;20120;-60
2021/01/21 06:13:38;;;;;;;91.55;42.42;;;-1.10;65.90;;;;;;5072727;28;20020;-60
2021/01/21 06:16:06;;;;;;;88.07;42.42;;;-1.10;66.10;;;;;;5073592;28;20032;-61
2021/01/21 06:18:32;;;;;;;97.93;44.58;;;-1.10;66.40;;;;;;5076218;28;20025;-60
2021/01/21 06:20:59;;;;;;;96.80;46.28;;;-1.10;66.30;;;;;;5076360;28;20024;-61
2021/01/21 06:23:26;;;;;;;86.38;42.15;;;-1.00;66.60;;;;;;5071511;28;20023;-60
2021/01/21 06:25:55;;;;;;;82.80;43.20;;;-1.00;66.60;;;;;;5072100;28;20072;-60
2021/01/21 06:28:21;;;;;;;62.88;32.83;;;-0.90;66.80;;;;;;5065478;28;20032;-63
2021/01/21 06:30:58;;;;;;;56.05;30.00;;;-0.90;67.30;;;;;;5066954;28;20032;-63
2021/01/21 06:33:31;;;;;;;40.47;21.50;;;-0.80;66.60;;;;;;5068355;28;20020;-63
2021/01/21 06:36:03;;;;;;;43.13;23.52;;;-0.70;66.60;;;;;;5072270;28;20480;-63
2021/01/21 06:38:37;;;;;;;39.45;20.77;;;-0.60;66.60;;;;;;5071524;28;20032;-62
2021/01/21 06:41:07;;;;;;;34.65;20.70;;;-0.60;66.70;;;;;;5068690;28;20048;-63
2021/01/21 06:43:37;;;;;;;27.65;15.60;;;-0.60;66.60;;;;;;5069034;28;20471;-62
2021/01/21 06:46:04;;;;;;;26.00;15.45;;;-0.50;66.70;;;;;;5062997;28;20032;-62
2021/01/21 06:48:29;;;;;;;31.50;16.73;;;-0.50;66.70;;;;;;5068501;28;20395;-62
2021/01/21 06:50:56;;;;;;;26.35;15.40;;;-0.50;66.60;;;;;;5063636;28;20020;-62
2021/01/21 06:53:22;;;;;;;26.88;15.82;;;-0.50;66.90;;;;;;5074751;28;20024;-62
2021/01/21 06:55:51;;;;;;;25.88;14.75;;;-0.50;66.90;;;;;;5060930;28;20103;-62
2021/01/21 06:58:49;;;;;;;25.73;15.70;;;-0.40;66.90;;;;;;5055035;28;20056;-63
2021/01/21 07:01:31;;;;;;;22.25;13.07;;;-0.40;66.80;;;;;;5056586;28;20021;-63
2021/01/21 07:03:57;;;;;;;24.70;13.97;;;-0.40;66.80;;;;;;5062239;28;20528;-63
2021/01/21 07:06:23;;;;;;;25.38;14.43;;;-0.40;66.70;;;;;;5057279;28;20335;-62
2021/01/21 07:09:06;;;;;;;27.20;16.10;;;-0.40;66.70;;;;;;5053380;28;20036;-62
2021/01/21 07:11:34;;;;;;;30.17;16.77;;;-0.30;67.00;;;;;;5060220;28;20013;-62
2021/01/21 07:14:00;;;;;;;27.33;16.25;;;-0.30;66.90;;;;;;5058485;28;20028;-62
2021/01/21 07:16:26;;;;;;;28.05;17.77;;;-0.30;67.10;;;;;;5060450;28;20029;-62
2021/01/21 07:18:54;;;;;;;25.23;15.57;;;-0.30;67.10;;;;;;5061545;28;20158;-63
2021/01/21 07:21:24;;;;;;;27.58;16.00;;;-0.30;67.30;;;;;;5064672;28;20016;-63
2021/01/21 07:23:56;;;;;;;30.10;17.02;;;-0.20;67.30;;;;;;5063154;28;20428;-63
2021/01/21 07:26:34;;;;;;;26.15;16.05;;;-0.20;67.40;;;;;;5059917;28;20050;-62
2021/01/21 07:29:03;;;;;;;26.20;16.83;;;-0.20;67.50;;;;;;5063947;28;20064;-63
2021/01/21 07:31:29;;;;;;;27.63;16.98;;;-0.10;67.60;;;;;;5056261;28;20031;-63
2021/01/21 07:34:24;;;;;;;27.10;18.45;;;-0.20;67.50;;;;;;5055563;28;20395;-63
2021/01/21 07:37:12;;;;;;;28.73;17.58;;;-0.10;67.80;;;;;;5052764;28;20025;-63
2021/01/21 07:40:03;;;;;;;25.08;16.02;;;-0.10;67.80;;;;;;5057899;28;20025;-63
2021/01/21 07:42:49;;;;;;;28.67;17.05;;;-0.10;67.90;;;;;;5060978;28;20032;-63
2021/01/21 07:45:18;;;;;;;30.02;17.77;;;-0.10;68.20;;;;;;5058941;28;20028;-63
2021/01/21 07:47:48;;;;;;;26.77;15.55;;;-0.10;68.20;;;;;;5052614;28;20048;-63
2021/01/21 07:50:17;;;;;;;24.05;15.45;;;0.00;68.40;;;;;;5059058;28;20166;-63
2021/01/21 07:52:44;;;;;;;26.52;15.48;;;0.00;68.40;;;;;;5060653;28;20103;-63
2021/01/21 07:55:11;;;;;;;25.50;16.13;;;0.10;68.50;;;;;;5058070;28;20055;-63
2021/01/21 07:57:37;;;;;;;27.63;16.42;;;0.10;68.60;;;;;;5057870;28;20085;-63
2021/01/21 08:00:11;;;;;;;26.83;14.95;;;0.20;68.60;;;;;;5056220;28;20912;-63
2021/01/21 08:02:44;;;;;;;25.00;13.63;;;0.20;68.60;;;;;;5056217;28;20033;-63
2021/01/21 08:05:10;;;;;;;26.73;15.80;;;0.30;69.40;;;;;;5058880;28;20032;-63
2021/01/21 08:07:57;;;;;;;24.35;15.00;;;0.30;68.70;;;;;;5056546;28;20075;-63
2021/01/21 08:10:28;;;;;;;21.23;14.10;;;0.30;68.90;;;;;;5062333;28;20043;-63
2021/01/21 08:12:56;;;;;;;23.27;16.42;;;0.30;68.90;;;;;;5058394;28;20040;-63
2021/01/21 08:15:23;;;;;;;25.13;17.45;;;0.30;69.00;;;;;;5056637;28;20024;-63
2021/01/21 08:17:49;;;;;;;31.67;20.77;;;0.30;69.00;;;;;;5056506;28;20040;-63
2021/01/21 08:20:20;;;;;;;29.25;17.55;;;0.40;69.30;;;;;;5059942;28;20139;-63
2021/01/21 08:23:05;;;;;;;37.92;24.38;;;0.50;69.80;;;;;;5058598;28;20021;-63
2021/01/21 08:25:40;;;;;;;27.75;18.55;;;0.60;69.60;;;;;;5056027;28;20043;-63
2021/01/21 08:28:06;;;;;;;27.85;18.23;;;0.70;69.50;;;;;;5052045;28;20036;-62
2021/01/21 08:30:32;;;;;;;27.58;18.13;;;0.80;69.40;;;;;;5051943;28;20059;-62
2021/01/21 08:32:59;;;;;;;32.67;19.83;;;0.90;69.50;;;;;;5053533;28;20392;-63
2021/01/21 08:35:28;;;;;;;27.48;18.98;;;1.00;69.60;;;;;;5051536;28;20081;-63
2021/01/21 08:37:57;;;;;;;35.28;22.63;;;1.10;69.50;;;;;;5054993;28;20115;-62
2021/01/21 08:40:24;;;;;;;25.90;16.88;;;1.20;69.40;;;;;;5055259;28;20131;-62
2021/01/21 08:42:51;;;;;;;25.08;17.05;;;1.30;69.20;;;;;;5059681;28;20054;-62
2021/01/21 08:45:18;;;;;;;33.47;19.73;;;1.40;69.30;;;;;;5061111;28;20033;-63
2021/01/21 08:47:49;;;;;;;31.17;19.63;;;1.40;69.10;;;;;;5055134;28;20037;-63
2021/01/21 08:50:17;;;;;;;24.98;18.33;;;1.50;69.30;;;;;;5054936;28;20116;-63
2021/01/21 08:52:56;;;;;;;30.02;19.25;;;1.50;69.20;;;;;;5056688;28;20032;-62
2021/01/21 08:55:21;;;;;;;25.98;18.05;;;1.50;69.40;;;;;;5055088;28;20028;-62
2021/01/21 08:58:01;;;;;;;30.10;19.13;;;1.60;69.30;;;;;;5050344;28;20035;-62
2021/01/21 09:00:28;;;;;;;25.42;16.05;;;1.60;69.10;;;;;;5052727;28;20024;-62
2021/01/21 09:02:54;;;;;;;24.98;15.90;;;1.70;69.30;;;;;;5050135;28;20183;-62
2021/01/21 09:05:21;;;;;;;21.67;13.77;;;1.70;69.10;;;;;;5055106;28;20091;-62
2021/01/21 09:07:50;;;;;;;23.38;13.95;;;1.70;68.90;;;;;;5059320;28;20149;-62
2021/01/21 09:10:17;;;;;;;21.85;14.18;;;1.70;68.90;;;;;;5058123;28;20060;-62
2021/01/21 09:12:43;;;;;;;21.05;13.50;;;1.70;69.00;;;;;;5053798;28;20032;-62
2021/01/21 09:15:14;;;;;;;23.27;14.15;;;1.70;69.00;;;;;;5052497;28;20040;-63
2021/01/21 09:17:41;;;;;;;21.60;13.77;;;1.60;69.00;;;;;;5051645;28;20231;-63
2021/01/21 09:20:20;;;;;;;22.10;14.80;;;1.60;69.40;;;;;;5053898;28;20550;-63
2021/01/21 09:22:47;;;;;;;20.50;14.73;;;1.60;69.40;;;;;;5057736;28;20914;-63
2021/01/21 09:25:13;;;;;;;23.70;14.85;;;1.60;69.40;;;;;;5056205;28;20040;-62
2021/01/21 09:27:40;;;;;;;23.13;15.38;;;1.70;69.50;;;;;;5050686;28;20037;-62
2021/01/21 09:30:13;;;;;;;27.15;18.45;;;1.70;69.50;;;;;;5051999;28;20060;-63
2021/01/21 09:32:44;;;;;;;25.60;16.52;;;1.70;69.50;;;;;;5055739;28;20043;-63
2021/01/21 09:35:14;;;;;;;23.02;16.13;;;1.80;69.60;;;;;;5053196;28;20125;-63
2021/01/21 09:37:42;;;;;;;24.13;15.40;;;1.80;69.40;;;;;;5054097;28;20040;-63
2021/01/21 09:40:17;;;;;;;25.08;16.88;;;1.90;69.30;;;;;;5051813;28;20631;-63
2021/01/21 09:42:43;;;;;;;22.27;14.93;;;1.90;69.30;;;;;;5053205;28;20017;-63
2021/01/21 09:45:10;;;;;;;21.70;15.07;;;2.00;69.40;;;;;;5053693;28;20848;-63
2021/01/21 09:47:36;;;;;;;25.75;15.70;;;2.00;69.20;;;;;;5059081;28;20539;-62
2021/01/21 09:50:04;;;;;;;29.45;17.58;;;2.00;69.40;;;;;;5055086;28;20040;-62
2021/01/21 09:52:31;;;;;;;25.65;16.08;;;2.10;69.50;;;;;;5052472;28;20395;-62
2021/01/21 09:54:56;;;;;;;24.60;15.45;;;2.10;69.50;;;;;;5057646;28;20086;-63
2021/01/21 09:57:22;;;;;;;27.20;16.58;;;2.20;69.20;;;;;;5058192;28;20059;-62
2021/01/21 09:59:48;;;;;;;23.38;14.73;;;2.30;69.30;;;;;;5058256;28;20032;-63
2021/01/21 10:02:14;;;;;;;29.20;16.40;;;2.30;69.10;;;;;;5055873;28;20024;-62
2021/01/21 10:04:40;;;;;;;26.95;16.75;;;2.40;69.10;;;;;;5055271;28;20025;-62
2021/01/21 10:07:07;;;;;;;22.88;14.25;;;2.40;69.20;;;;;;5058411;28;20055;-62
2021/01/21 10:09:33;;;;;;;22.08;14.00;;;2.50;68.90;;;;;;5059612;28;20051;-63
2021/01/21 10:11:59;;;;;;;18.98;12.30;;;2.60;69.00;;;;;;5058783;28;20036;-62
2021/01/21 10:14:25;;;;;;;19.88;13.00;;;2.60;68.60;;;;;;5055310;28;20047;-63
2021/01/21 10:16:51;;;;;;;22.00;13.77;;;2.60;68.50;;;;;;5051981;28;20037;-62
2021/01/21 10:19:16;;;;;;;25.23;15.88;;;2.60;68.20;;;;;;5059713;28;20165;-63
2021/01/21 10:21:42;;;;;;;27.30;15.85;;;2.50;68.20;;;;;;5057508;28;20460;-63
2021/01/21 10:24:08;;;;;;;23.13;14.55;;;2.50;68.40;;;;;;5056458;28;20036;-63
2021/01/21 10:26:34;;;;;;;25.58;14.57;;;2.60;68.40;;;;;;5056077;28;20839;-63
2021/01/21 10:28:59;;;;;;;19.58;12.93;;;2.60;68.00;;;;;;5056555;28;20133;-63
2021/01/21 10:31:25;;;;;;;24.33;14.70;;;2.60;68.10;;;;;;5055342;28;20457;-62
2021/01/21 10:33:51;;;;;;;23.65;13.50;;;2.50;68.00;;;;;;5057995;28;20115;-62
2021/01/21 10:36:17;;;;;;;21.77;13.13;;;2.40;68.00;;;;;;5055401;28;20776;-63
2021/01/21 10:38:43;;;;;;;21.45;13.10;;;2.40;68.20;;;;;;5057089;28;20074;-62
2021/01/21 10:41:09;;;;;;;21.60;12.55;;;2.40;68.40;;;;;;5058203;28;20052;-62
2021/01/21 10:43:35;;;;;;;23.33;14.38;;;2.40;68.60;;;;;;5058501;28;20104;-62
2021/01/21 10:46:00;;;;;;;24.92;14.82;;;2.40;68.60;;;;;;5056901;28;20147;-62
2021/01/21 10:48:26;;;;;;;23.38;15.55;;;2.40;68.60;;;;;;5059730;28;20039;-62
2021/01/21 10:50:53;;;;;;;25.17;16.10;;;2.50;68.90;;;;;;5057477;28;20043;-62
2021/01/21 10:53:18;;;;;;;22.92;14.85;;;2.60;68.80;;;;;;5054985;28;20060;-62
2021/01/21 10:55:44;;;;;;;20.70;13.65;;;2.70;68.80;;;;;;5059022;28;20101;-63
2021/01/21 10:58:10;;;;;;;20.90;13.10;;;2.70;68.50;;;;;;5053456;28;20037;-63
2021/01/21 11:00:36;;;;;;;23.45;14.90;;;2.70;68.40;;;;;;5055688;28;20027;-63
2021/01/21 11:03:03;;;;;;;28.73;16.92;;;2.70;68.30;;;;;;5053707;28;21959;-62
2021/01/21 11:05:29;;;;;;;26.13;15.82;;;2.60;68.30;;;;;;5052861;28;20039;-62
2021/01/21 11:07:55;;;;;;;23.40;15.48;;;2.60;68.50;;;;;;5052708;28;20027;-62
2021/01/21 11:10:20;;;;;;;23.13;15.10;;;2.60;68.50;;;;;;5053320;28;20028;-62
2021/01/21 11:12:49;;;;;;;30.05;16.52;;;2.60;68.70;;;;;;5052213;28;20044;-62
2021/01/21 11:15:16;;;;;;;23.55;14.65;;;2.70;69.00;;;;;;5055781;28;20089;-62
2021/01/21 11:17:46;;;;;;;23.98;14.57;;;2.70;69.00;;;;;;5060659;28;20107;-62
2021/01/21 11:20:15;;;;;;;21.90;15.05;;;2.70;68.80;;;;;;5062474;28;20040;-62
2021/01/21 11:22:41;;;;;;;22.10;14.95;;;2.80;68.90;;;;;;5060765;28;20480;-62
2021/01/21 11:25:08;;;;;;;24.67;14.88;;;2.80;68.80;;;;;;5058711;28;20029;-62
2021/01/21 11:27:35;;;;;;;25.65;14.65;;;2.70;68.70;;;;;;5056719;28;20107;-62
2021/01/21 11:30:04;;;;;;;23.60;15.75;;;2.70;68.80;;;;;;5060593;28;20491;-63
2021/01/21 11:32:30;;;;;;;28.55;16.88;;;2.80;69.00;;;;;;5055062;28;20033;-63
2021/01/21 11:34:55;;;;;;;23.73;15.43;;;2.80;69.20;;;;;;5058660;28;20090;-62
2021/01/21 11:37:21;;;;;;;23.00;14.85;;;2.80;69.10;;;;;;5059509;28;20033;-62
2021/01/21 11:39:47;;;;;;;22.00;14.35;;;2.90;69.00;;;;;;5056769;28;20040;-62
2021/01/21 11:42:12;;;;;;;27.48;16.40;;;2.90;68.60;;;;;;5059923;28;20428;-62
2021/01/21 11:44:38;;;;;;;28.38;17.98;;;2.90;68.80;;;;;;5059825;28;20783;-62
2021/01/21 11:47:04;;;;;;;22.58;14.20;;;2.90;68.90;;;;;;5052115;28;20086;-62
2021/01/21 11:49:29;;;;;;;22.63;14.75;;;2.90;69.10;;;;;;5051413;28;20062;-62
2021/01/21 11:51:55;;;;;;;22.60;14.35;;;2.90;68.90;;;;;;5052597;28;20052;-62
2021/01/21 11:54:21;;;;;;;21.17;14.73;;;2.90;68.70;;;;;;5051975;28;20094;-62
2021/01/21 11:56:48;;;;;;;24.67;16.20;;;2.90;69.10;;;;;;5059165;28;20131;-62
2021/01/21 11:59:13;;;;;;;22.33;14.88;;;2.90;68.90;;;;;;5057701;28;20379;-62
2021/01/21 12:01:41;;;;;;;19.88;14.00;;;2.90;68.80;;;;;;5052811;28;20029;-62
2021/01/21 12:04:07;;;;;;;27.08;16.95;;;2.90;69.10;;;;;;5054274;28;20025;-62
2021/01/21 12:06:32;;;;;;;27.10;16.70;;;2.90;68.90;;;;;;5060957;28;20450;-62
2021/01/21 12:08:58;;;;;;;21.88;14.23;;;2.90;69.00;;;;;;5057754;28;20039;-62
2021/01/21 12:11:24;;;;;;;24.98;15.13;;;2.90;68.90;;;;;;5045027;28;20060;-62
2021/01/21 12:13:49;;;;;;;20.55;12.95;;;2.90;68.90;;;;;;5047945;28;20108;-62
2021/01/21 12:16:15;;;;;;;21.52;14.25;;;2.90;68.90;;;;;;5052470;28;20044;-63
2021/01/21 12:18:41;;;;;;;19.83;12.85;;;2.90;68.80;;;;;;5045038;28;20095;-63
2021/01/21 12:21:06;;;;;;;23.58;15.18;;;2.80;68.80;;;;;;5054840;28;20070;-63
2021/01/21 12:23:32;;;;;;;19.48;12.80;;;2.80;68.90;;;;;;5052404;28;20032;-63
2021/01/21 12:25:59;;;;;;;25.02;15.38;;;2.80;69.20;;;;;;5052743;28;20032;-63
2021/01/21 12:28:25;;;;;;;23.92;15.23;;;2.80;69.40;;;;;;5052858;28;20024;-63
2021/01/21 12:30:52;;;;;;;25.80;15.02;;;2.80;69.50;;;;;;5053408;28;20099;-62
2021/01/21 12:33:18;;;;;;;18.90;12.13;;;2.90;69.50;;;;;;5046599;28;20029;-63
2021/01/21 12:35:44;;;;;;;22.60;14.35;;;2.90;69.30;;;;;;5051510;28;20047;-63